Time;durP1;ratioP1;P1;durP2;ratioP2;P2;SDS_P1;SDS_P2;PMS_P1;PMS_P2;Temp;Humidity;BMP_temperature;BMP_pressure;BME280_temperature;BME280_humidity;BME280_pressure;Samples;Min_cycle;Max_cycle;Signal;HPM_P1;HPM_P2
2022/08/22 00:01:24;;;;;;;11.05;4.05;;;20.20;99.90;;;;;;5050949;28;25099;-75
2022/08/22 00:04:11;;;;;;;7.43;3.40;;;20.20;99.90;;;;;;5067232;28;25059;-73
2022/08/22 00:07:00;;;;;;;9.48;3.80;;;20.30;99.90;;;;;;5060860;28;25175;-73
2022/08/22 00:09:36;;;;;;;11.45;4.53;;;20.30;99.90;;;;;;5062503;28;25078;-73
2022/08/22 00:12:20;;;;;;;16.02;4.70;;;20.10;99.90;;;;;;5053169;28;25052;-75
2022/08/22 00:14:55;;;;;;;9.10;4.72;;;20.00;99.90;;;;;;5058804;28;25056;-74
2022/08/22 00:17:59;;;;;;;12.18;5.53;;;20.00;99.90;;;;;;5055320;28;25067;-73
2022/08/22 00:20:44;;;;;;;12.10;5.00;;;19.70;99.90;;;;;;5046692;28;25149;-73
2022/08/22 00:23:28;;;;;;;13.10;6.63;;;19.80;99.90;;;;;;5051252;28;25081;-73
2022/08/22 00:26:23;;;;;;;16.08;4.90;;;19.90;99.90;;;;;;5065907;28;25112;-73
2022/08/22 00:28:57;;;;;;;11.95;5.55;;;19.90;99.90;;;;;;5049097;28;25125;-74
2022/08/22 00:31:30;;;;;;;11.40;4.95;;;19.90;99.90;;;;;;5063996;28;25081;-73
2022/08/22 00:34:15;;;;;;;15.82;5.43;;;20.00;99.90;;;;;;5057667;28;25085;-74
2022/08/22 00:37:01;;;;;;;8.02;4.65;;;20.10;99.90;;;;;;5061577;28;25073;-75
2022/08/22 00:39:34;;;;;;;10.93;5.40;;;20.10;99.90;;;;;;5055627;28;25063;-74
2022/08/22 00:42:31;;;;;;;16.02;6.28;;;20.10;99.90;;;;;;5060463;28;25074;-74
2022/08/22 00:45:19;;;;;;;13.48;6.53;;;20.10;99.90;;;;;;5048442;28;25146;-73
2022/08/22 00:47:50;;;;;;;14.10;5.35;;;20.10;99.90;;;;;;5057587;28;25161;-74
2022/08/22 00:50:38;;;;;;;15.97;6.77;;;20.20;99.90;;;;;;5052299;28;25110;-73
2022/08/22 00:53:35;;;;;;;13.52;5.97;;;20.00;99.90;;;;;;5050502;28;25100;-74
2022/08/22 00:56:41;;;;;;;10.35;6.22;;;20.00;99.90;;;;;;5056231;28;25088;-74
2022/08/22 00:59:40;;;;;;;14.32;7.43;;;19.70;99.90;;;;;;5059643;28;25054;-73
2022/08/22 01:02:30;;;;;;;19.13;7.25;;;19.70;99.90;;;;;;5066932;28;25064;-75
2022/08/22 01:05:17;;;;;;;15.30;7.68;;;19.60;99.90;;;;;;5064893;28;25056;-74
2022/08/22 01:08:13;;;;;;;25.23;7.60;;;19.70;99.90;;;;;;5053412;28;25062;-74
2022/08/22 01:11:09;;;;;;;12.63;7.47;;;19.80;99.90;;;;;;5061757;28;25075;-74
2022/08/22 01:14:08;;;;;;;15.02;8.70;;;19.80;99.90;;;;;;5056418;28;25064;-74
2022/08/22 01:17:09;;;;;;;16.92;7.85;;;19.70;99.90;;;;;;5059092;28;25084;-72
2022/08/22 01:20:28;;;;;;;17.63;7.20;;;19.60;99.90;;;;;;4999025;28;25059;-72
2022/08/22 01:23:12;;;;;;;14.15;6.78;;;19.60;99.90;;;;;;5049338;28;25095;-73
2022/08/22 01:25:58;;;;;;;12.13;7.70;;;19.80;99.90;;;;;;5055155;28;25130;-74
2022/08/22 01:28:43;;;;;;;16.00;7.85;;;19.80;99.90;;;;;;5063256;28;25079;-75
2022/08/22 01:31:44;;;;;;;13.55;8.05;;;19.70;99.90;;;;;;5056140;28;25070;-74
2022/08/22 01:34:25;;;;;;;16.25;7.28;;;19.90;99.90;;;;;;5050433;28;25056;-74
2022/08/22 01:37:28;;;;;;;16.60;7.18;;;19.90;99.90;;;;;;5058808;28;25084;-74
2022/08/22 01:40:02;;;;;;;12.77;6.32;;;19.80;99.90;;;;;;5053670;28;25072;-74
2022/08/22 01:42:46;;;;;;;11.52;6.78;;;19.90;99.90;;;;;;5066440;28;25124;-74
2022/08/22 01:45:35;;;;;;;14.63;6.68;;;20.00;99.90;;;;;;5046274;28;25160;-74
2022/08/22 01:48:11;;;;;;;14.13;6.28;;;19.90;99.90;;;;;;5049446;28;25123;-74
2022/08/22 01:50:48;;;;;;;13.02;6.82;;;19.90;99.90;;;;;;5053164;28;25174;-74
2022/08/22 01:53:48;;;;;;;15.77;8.13;;;19.80;99.90;;;;;;5064059;28;25071;-74
2022/08/22 01:56:22;;;;;;;13.45;8.60;;;19.60;99.90;;;;;;5050396;28;25118;-74
2022/08/22 01:59:03;;;;;;;17.95;9.40;;;19.50;99.90;;;;;;5053393;28;25089;-75
2022/08/22 02:01:39;;;;;;;15.25;9.23;;;19.40;99.90;;;;;;5054776;28;25061;-75
2022/08/22 02:04:13;;;;;;;16.13;9.05;;;19.40;99.90;;;;;;5045317;28;25072;-74
2022/08/22 02:07:03;;;;;;;16.77;8.60;;;19.50;99.90;;;;;;5053974;28;25070;-74
2022/08/22 02:09:29;;;;;;;14.70;8.30;;;19.40;99.90;;;;;;5051326;28;25099;-74
2022/08/22 02:12:15;;;;;;;18.65;8.90;;;19.40;99.90;;;;;;5051825;28;25160;-74
2022/08/22 02:14:53;;;;;;;15.07;7.85;;;19.50;99.90;;;;;;5056061;28;25146;-74
2022/08/22 02:17:27;;;;;;;12.98;7.55;;;19.70;99.90;;;;;;5058889;28;25060;-73
2022/08/22 02:20:22;;;;;;;16.98;7.28;;;19.80;99.90;;;;;;5054794;28;25064;-74
2022/08/22 02:23:16;;;;;;;13.80;8.00;;;19.70;99.90;;;;;;5045083;28;25097;-74
2022/08/22 02:25:55;;;;;;;12.63;8.35;;;19.80;99.90;;;;;;5056879;28;25058;-74
2022/08/22 02:28:42;;;;;;;12.52;7.95;;;19.80;99.90;;;;;;5044598;28;25070;-74
2022/08/22 02:31:17;;;;;;;16.08;7.63;;;19.90;99.90;;;;;;5052544;28;25102;-75
2022/08/22 02:33:45;;;;;;;19.05;8.13;;;19.90;99.90;;;;;;5057419;28;25098;-75
2022/08/22 02:36:21;;;;;;;11.48;7.70;;;19.80;99.90;;;;;;5061277;28;25057;-73
2022/08/22 02:39:02;;;;;;;16.45;6.72;;;19.80;99.90;;;;;;5055056;28;25149;-73
2022/08/22 02:41:50;;;;;;;10.95;7.03;;;19.70;99.90;;;;;;5053843;28;25060;-75
2022/08/22 02:44:38;;;;;;;12.98;7.63;;;19.60;99.90;;;;;;5048839;28;25056;-74
2022/08/22 02:47:22;;;;;;;12.88;6.32;;;19.60;99.90;;;;;;5065788;28;25088;-74
2022/08/22 02:49:56;;;;;;;15.13;6.90;;;19.60;99.90;;;;;;5047981;28;25073;-74
2022/08/22 02:52:44;;;;;;;15.45;7.07;;;19.50;99.90;;;;;;5057611;28;25059;-73
2022/08/22 02:55:31;;;;;;;10.43;6.45;;;19.50;99.90;;;;;;5059162;28;25144;-73
2022/08/22 02:58:12;;;;;;;9.95;5.93;;;19.60;99.90;;;;;;5065467;28;25066;-73
2022/08/22 03:01:08;;;;;;;9.50;5.40;;;19.50;99.90;;;;;;5056147;28;25094;-73
2022/08/22 03:03:40;;;;;;;8.70;5.18;;;19.50;99.90;;;;;;5053556;28;25076;-75
2022/08/22 03:06:40;;;;;;;12.73;5.63;;;19.60;99.90;;;;;;5059391;28;25152;-73
2022/08/22 03:09:24;;;;;;;10.55;5.03;;;19.80;99.90;;;;;;5059937;28;25075;-75
2022/08/22 03:12:18;;;;;;;11.77;5.55;;;19.70;99.90;;;;;;5054145;28;25083;-75
2022/08/22 03:15:26;;;;;;;14.27;5.93;;;19.70;99.90;;;;;;5065893;28;25098;-73
2022/08/22 03:18:11;;;;;;;11.30;5.28;;;19.80;99.90;;;;;;5062726;28;25062;-75
2022/08/22 03:20:42;;;;;;;10.63;6.75;;;19.80;99.90;;;;;;5056520;28;25169;-74
2022/08/22 03:23:37;;;;;;;8.68;5.57;;;19.90;99.90;;;;;;5056590;28;25049;-74
2022/08/22 03:26:21;;;;;;;8.60;5.63;;;20.00;99.90;;;;;;5052130;28;25169;-74
2022/08/22 03:29:01;;;;;;;10.93;5.38;;;20.00;99.90;;;;;;5061659;28;25057;-74
2022/08/22 03:31:29;;;;;;;12.43;5.47;;;19.70;99.90;;;;;;5058566;28;25095;-74
2022/08/22 03:34:15;;;;;;;10.20;5.50;;;19.60;99.90;;;;;;5064227;28;25171;-75
2022/08/22 03:37:01;;;;;;;10.52;4.93;;;19.60;99.90;;;;;;5069477;28;25112;-75
2022/08/22 03:39:48;;;;;;;11.02;6.20;;;19.50;99.90;;;;;;5071525;28;25070;-75
2022/08/22 03:42:34;;;;;;;11.43;4.38;;;19.60;99.90;;;;;;5066541;28;25080;-73
2022/08/22 03:45:44;;;;;;;12.50;4.80;;;19.60;99.90;;;;;;5066324;28;25103;-73
2022/08/22 03:48:41;;;;;;;11.95;4.65;;;19.60;99.90;;;;;;5059784;28;25127;-74
2022/08/22 03:51:22;;;;;;;11.50;5.25;;;19.60;99.90;;;;;;5064952;28;25082;-74
2022/08/22 03:53:57;;;;;;;9.13;5.20;;;19.60;99.90;;;;;;5067184;28;25101;-73
2022/08/22 03:57:13;;;;;;;12.65;5.47;;;19.40;99.90;;;;;;5070169;28;25161;-72
2022/08/22 03:59:48;;;;;;;8.52;5.05;;;19.40;99.90;;;;;;5048442;28;25076;-76
2022/08/22 04:02:46;;;;;;;9.95;4.85;;;19.40;99.90;;;;;;5061340;28;25126;-73
2022/08/22 04:05:17;;;;;;;8.75;5.75;;;19.40;99.90;;;;;;5066493;28;25063;-74
2022/08/22 04:08:12;;;;;;;11.03;5.53;;;19.40;99.90;;;;;;5066444;28;25134;-74
2022/08/22 04:11:06;;;;;;;13.27;5.68;;;19.50;99.90;;;;;;5055602;28;25168;-75
2022/08/22 04:13:48;;;;;;;9.82;6.47;;;19.60;99.90;;;;;;5060904;28;25144;-73
2022/08/22 04:16:13;;;;;;;14.70;6.93;;;19.30;99.90;;;;;;5062224;28;25088;-72
2022/08/22 04:18:48;;;;;;;12.23;7.63;;;19.20;99.90;;;;;;5072966;28;25096;-74
2022/08/22 04:21:34;;;;;;;13.77;6.97;;;19.10;99.90;;;;;;5068673;28;25066;-72
2022/08/22 04:24:18;;;;;;;15.85;6.93;;;19.00;99.90;;;;;;5060543;28;25053;-74
2022/08/22 04:27:09;;;;;;;11.05;7.00;;;19.10;99.90;;;;;;5053426;28;25079;-74
2022/08/22 04:29:45;;;;;;;22.20;7.33;;;19.20;99.90;;;;;;5059725;28;25108;-74
2022/08/22 04:32:28;;;;;;;18.08;7.90;;;19.30;99.90;;;;;;5065292;28;25054;-73
2022/08/22 04:35:07;;;;;;;14.45;7.18;;;19.20;99.90;;;;;;5064467;28;25065;-72
2022/08/22 04:38:06;;;;;;;19.58;7.43;;;19.10;99.90;;;;;;5079314;28;25078;-74
2022/08/22 04:40:54;;;;;;;12.48;6.35;;;19.20;99.90;;;;;;5071427;28;25082;-74
2022/08/22 04:43:35;;;;;;;14.73;7.93;;;19.20;99.90;;;;;;5083350;28;25052;-74
2022/08/22 04:46:17;;;;;;;11.77;6.45;;;19.10;99.90;;;;;;5080692;28;25052;-74
2022/08/22 04:49:25;;;;;;;11.73;7.13;;;19.10;99.90;;;;;;5087394;28;25072;-75
2022/08/22 04:52:23;;;;;;;12.73;6.05;;;19.20;99.90;;;;;;5062634;28;25104;-76
2022/08/22 04:55:20;;;;;;;13.88;6.22;;;19.20;99.90;;;;;;5072079;28;25069;-75
2022/08/22 04:58:25;;;;;;;11.80;7.03;;;19.20;99.90;;;;;;5077058;28;25095;-74
2022/08/22 05:01:14;;;;;;;11.70;6.88;;;19.10;99.90;;;;;;5074770;28;25065;-75
2022/08/22 05:04:11;;;;;;;10.95;7.00;;;18.90;99.90;;;;;;5074201;28;25067;-75
2022/08/22 05:06:41;;;;;;;14.75;7.53;;;18.70;99.90;;;;;;5078888;28;25057;-74
2022/08/22 05:09:12;;;;;;;13.82;6.85;;;18.60;99.90;;;;;;5081897;28;25100;-76
2022/08/22 05:11:40;;;;;;;14.73;6.75;;;18.60;99.90;;;;;;5071438;28;25080;-75
2022/08/22 05:14:15;;;;;;;9.43;6.25;;;18.60;99.90;;;;;;5072944;28;25048;-77
2022/08/22 05:16:44;;;;;;;18.67;6.88;;;18.80;99.90;;;;;;5064417;28;25099;-74
2022/08/22 05:19:15;;;;;;;10.57;6.45;;;18.80;99.90;;;;;;5064528;28;25067;-74
2022/08/22 05:21:43;;;;;;;12.63;7.13;;;18.90;99.90;;;;;;5067545;28;25105;-74
2022/08/22 05:24:31;;;;;;;17.10;7.50;;;18.80;99.90;;;;;;5053596;28;25133;-73
2022/08/22 05:27:02;;;;;;;16.05;6.85;;;18.70;99.90;;;;;;5063807;28;25139;-73
2022/08/22 05:29:31;;;;;;;14.25;6.20;;;18.80;99.90;;;;;;5061887;28;25086;-74
2022/08/22 05:32:10;;;;;;;14.23;6.25;;;18.70;99.90;;;;;;5050081;28;25100;-74
2022/08/22 05:34:39;;;;;;;14.52;6.60;;;18.70;99.90;;;;;;5054128;28;25061;-73
2022/08/22 05:37:10;;;;;;;10.32;6.43;;;18.70;99.90;;;;;;5051518;28;25169;-74
2022/08/22 05:39:38;;;;;;;10.55;6.80;;;18.80;99.90;;;;;;5052871;28;25095;-73
2022/08/22 05:42:10;;;;;;;12.93;6.70;;;18.80;99.90;;;;;;5063635;28;25092;-73
2022/08/22 05:44:37;;;;;;;10.95;5.80;;;18.80;99.90;;;;;;5049521;28;25089;-73
2022/08/22 05:47:20;;;;;;;11.57;6.82;;;18.80;99.90;;;;;;5062490;28;25098;-72
2022/08/22 05:50:02;;;;;;;10.63;6.28;;;18.80;99.90;;;;;;5053289;28;25077;-75
2022/08/22 05:52:37;;;;;;;13.18;6.90;;;18.80;99.90;;;;;;5058921;28;25059;-73
2022/08/22 05:55:22;;;;;;;12.18;6.15;;;18.80;99.90;;;;;;5057593;28;25077;-72
2022/08/22 05:57:56;;;;;;;12.82;6.10;;;18.90;99.90;;;;;;5060278;28;25106;-75
2022/08/22 06:00:27;;;;;;;19.60;7.50;;;18.90;99.90;;;;;;5064072;28;25074;-73
2022/08/22 06:03:02;;;;;;;41.53;8.25;;;18.90;99.90;;;;;;5045542;28;25106;-74
2022/08/22 06:05:31;;;;;;;22.27;6.28;;;18.70;99.90;;;;;;5049289;28;25085;-74
2022/08/22 06:08:34;;;;;;;17.88;5.85;;;18.70;99.90;;;;;;5055689;28;25068;-74
2022/08/22 06:11:11;;;;;;;15.73;5.65;;;18.80;99.90;;;;;;5033359;28;25134;-73
2022/08/22 06:13:44;;;;;;;12.30;5.90;;;19.00;99.90;;;;;;5056726;28;25052;-73
2022/08/22 06:16:20;;;;;;;17.48;6.78;;;18.90;99.90;;;;;;5050464;28;25065;-74
2022/08/22 06:18:48;;;;;;;10.60;5.70;;;18.90;99.90;;;;;;5054853;28;25057;-73
2022/08/22 06:21:40;;;;;;;14.38;5.88;;;18.90;99.90;;;;;;5045642;28;25134;-74
2022/08/22 06:24:12;;;;;;;20.02;6.72;;;18.90;99.90;;;;;;5048317;28;25068;-73
2022/08/22 06:26:42;;;;;;;10.70;5.47;;;19.00;99.90;;;;;;5049903;28;25072;-73
2022/08/22 06:29:13;;;;;;;15.38;5.68;;;19.00;99.90;;;;;;5047194;28;25089;-74
2022/08/22 06:31:44;;;;;;;13.48;5.75;;;19.10;99.90;;;;;;5056910;28;25061;-74
2022/08/22 06:34:19;;;;;;;13.13;6.88;;;19.00;99.90;;;;;;5055690;28;25095;-73
2022/08/22 06:36:48;;;;;;;12.90;5.45;;;19.20;99.90;;;;;;5054133;28;25074;-72
2022/08/22 06:39:31;;;;;;;11.93;5.88;;;19.40;99.90;;;;;;5053600;28;25165;-73
2022/08/22 06:42:18;;;;;;;13.68;5.97;;;19.30;99.90;;;;;;5058074;28;25077;-74
2022/08/22 06:45:00;;;;;;;15.25;7.30;;;19.10;99.90;;;;;;5049864;28;25071;-73
2022/08/22 06:47:31;;;;;;;16.02;6.55;;;18.80;99.90;;;;;;5054038;28;25070;-74
2022/08/22 06:50:20;;;;;;;12.18;6.40;;;18.70;99.90;;;;;;5054086;28;25067;-73
2022/08/22 06:52:55;;;;;;;10.20;5.63;;;18.90;99.90;;;;;;5050389;28;25076;-72
2022/08/22 06:55:25;;;;;;;12.25;6.72;;;19.10;99.90;;;;;;5053970;28;25144;-73
2022/08/22 06:58:04;;;;;;;9.57;6.00;;;19.30;99.90;;;;;;5051457;28;25115;-74
2022/08/22 07:00:33;;;;;;;16.05;6.95;;;19.30;99.90;;;;;;5058526;28;25074;-70
2022/08/22 07:03:25;;;;;;;17.20;6.45;;;19.40;99.90;;;;;;5059648;28;25056;-74
2022/08/22 07:05:54;;;;;;;9.93;6.40;;;19.40;99.90;;;;;;5061335;28;25051;-74
2022/08/22 07:08:22;;;;;;;18.05;6.07;;;19.50;99.90;;;;;;5054482;28;25056;-73
2022/08/22 07:11:16;;;;;;;13.05;6.47;;;19.60;99.90;;;;;;5050535;28;25071;-75
2022/08/22 07:13:50;;;;;;;12.45;5.82;;;19.50;99.90;;;;;;5058837;28;25118;-75
2022/08/22 07:16:23;;;;;;;12.60;5.93;;;19.60;99.90;;;;;;5050850;28;25080;-75
2022/08/22 07:18:49;;;;;;;19.30;6.20;;;19.50;99.90;;;;;;5061612;28;25058;-75
2022/08/22 07:21:40;;;;;;;13.05;6.85;;;19.60;99.90;;;;;;5057998;28;25066;-77
2022/08/22 07:24:06;;;;;;;12.05;5.72;;;19.60;99.90;;;;;;5054886;28;25081;-75
2022/08/22 07:26:46;;;;;;;16.42;5.32;;;19.70;99.90;;;;;;5056163;28;25081;-75
2022/08/22 07:29:20;;;;;;;11.05;5.60;;;19.90;99.90;;;;;;5053567;28;25081;-74
2022/08/22 07:31:58;;;;;;;12.15;6.00;;;20.00;99.90;;;;;;5057560;28;25132;-74
2022/08/22 07:35:00;;;;;;;14.48;5.85;;;20.00;99.90;;;;;;5055530;28;25097;-74
2022/08/22 07:37:58;;;;;;;9.60;5.82;;;20.00;99.90;;;;;;5057356;28;25127;-74
2022/08/22 07:40:39;;;;;;;20.80;6.75;;;19.90;99.90;;;;;;5056974;28;25150;-76
2022/08/22 07:43:36;;;;;;;10.82;5.50;;;19.90;99.90;;;;;;5054089;28;25055;-75
2022/08/22 07:46:31;;;;;;;17.05;7.10;;;19.80;99.90;;;;;;5053485;28;25062;-74
2022/08/22 07:49:02;;;;;;;10.95;5.47;;;19.70;99.90;;;;;;5057913;28;25051;-75
2022/08/22 07:51:42;;;;;;;13.95;6.80;;;20.00;99.90;;;;;;5059359;28;25061;-77
2022/08/22 07:54:12;;;;;;;9.90;5.85;;;20.10;99.90;;;;;;5053637;28;25102;-75
2022/08/22 07:56:58;;;;;;;14.25;6.10;;;20.20;99.90;;;;;;5062749;28;25064;-72
2022/08/22 07:59:27;;;;;;;16.15;5.80;;;20.20;99.90;;;;;;5053134;28;25095;-75
2022/08/22 08:01:55;;;;;;;14.88;6.60;;;20.30;99.90;;;;;;5074518;28;25086;-76
2022/08/22 08:04:34;;;;;;;10.07;6.50;;;20.30;99.90;;;;;;5060277;28;25058;-74
2022/08/22 08:07:01;;;;;;;11.57;5.88;;;20.30;99.90;;;;;;5065226;28;25101;-76
2022/08/22 08:09:31;;;;;;;12.18;5.88;;;20.60;99.90;;;;;;5069006;28;25162;-75
2022/08/22 08:12:00;;;;;;;11.27;6.30;;;20.70;99.90;;;;;;5058170;28;25054;-76
2022/08/22 08:14:27;;;;;;;10.40;6.35;;;21.20;99.90;;;;;;5062954;28;25090;-76
2022/08/22 08:17:09;;;;;;;16.55;6.72;;;21.00;99.90;;;;;;5053037;28;25125;-75
2022/08/22 08:19:39;;;;;;;16.17;7.28;;;20.60;99.90;;;;;;5050693;28;25054;-75
2022/08/22 08:22:06;;;;;;;13.18;6.75;;;20.70;99.90;;;;;;5061015;28;25073;-74
2022/08/22 08:24:36;;;;;;;13.40;6.07;;;20.90;99.90;;;;;;5061042;28;25059;-74
2022/08/22 08:29:57;;;;;;;11.27;7.05;;;21.00;99.90;;;;;;5052381;28;25067;-76
2022/08/22 08:32:26;;;;;;;10.90;6.68;;;20.80;99.90;;;;;;5053236;28;25159;-77
2022/08/22 08:34:53;;;;;;;11.68;6.35;;;20.70;99.90;;;;;;5053208;28;25061;-75
2022/08/22 08:37:40;;;;;;;10.90;6.82;;;20.60;99.90;;;;;;5049595;28;25060;-76
2022/08/22 08:40:19;;;;;;;13.40;7.32;;;20.60;99.90;;;;;;5054217;28;25070;-76
2022/08/22 08:46:08;;;;;;;13.43;6.67;;;20.70;99.90;;;;;;5056475;28;25079;-75
2022/08/22 08:48:52;;;;;;;13.43;7.25;;;20.60;99.90;;;;;;5051409;28;25192;-77
2022/08/22 08:51:39;;;;;;;15.18;6.22;;;20.70;99.90;;;;;;5058693;28;25106;-78
2022/08/22 08:54:26;;;;;;;13.27;6.30;;;20.50;99.90;;;;;;5061985;28;25060;-77
2022/08/22 08:57:38;;;;;;;11.23;6.47;;;20.70;99.90;;;;;;5059755;28;25113;-76
2022/08/22 09:00:11;;;;;;;9.20;6.03;;;20.90;99.90;;;;;;5013555;28;25072;-75
2022/08/22 09:03:03;;;;;;;11.85;6.15;;;21.20;99.90;;;;;;5055707;28;25080;-79
2022/08/22 09:05:57;;;;;;;12.67;5.93;;;21.40;99.90;;;;;;5045581;28;25074;-77
2022/08/22 09:08:43;;;;;;;13.43;6.60;;;21.80;99.90;;;;;;5071360;28;25105;-74
2022/08/22 09:11:26;;;;;;;13.35;6.47;;;21.50;99.90;;;;;;5063515;28;25098;-76
2022/08/22 09:14:15;;;;;;;16.63;6.30;;;21.30;99.90;;;;;;5059991;28;25060;-76
2022/08/22 09:17:31;;;;;;;19.05;6.07;;;21.30;99.90;;;;;;5062611;28;25086;-76
2022/08/22 09:20:45;;;;;;;12.05;6.28;;;21.20;99.90;;;;;;4994920;28;25065;-75
2022/08/22 09:23:16;;;;;;;14.52;6.25;;;21.00;99.90;;;;;;4987687;28;25103;-75
2022/08/22 09:25:48;;;;;;;14.57;6.57;;;21.10;99.90;;;;;;5043623;28;25096;-75
2022/08/22 09:28:37;;;;;;;12.55;5.70;;;21.20;99.90;;;;;;5055340;28;25168;-77
2022/08/22 09:31:26;;;;;;;13.27;6.25;;;21.40;99.90;;;;;;5050306;28;25114;-74
2022/08/22 09:34:17;;;;;;;13.85;6.25;;;21.60;99.90;;;;;;5058219;28;25063;-75
2022/08/22 09:37:16;;;;;;;11.45;6.07;;;21.70;99.90;;;;;;5047411;28;25062;-77
2022/08/22 09:39:49;;;;;;;11.45;5.93;;;21.50;99.90;;;;;;5058110;28;25149;-77
2022/08/22 09:42:29;;;;;;;10.18;5.38;;;21.50;99.90;;;;;;5052078;28;25063;-76
2022/08/22 09:45:18;;;;;;;12.82;6.00;;;21.60;99.90;;;;;;5059762;28;25074;-76
2022/08/22 09:48:00;;;;;;;11.45;5.97;;;21.70;99.90;;;;;;5059672;28;25052;-75
2022/08/22 09:50:35;;;;;;;;;;;22.00;99.90;;;;;;5058574;28;25128;-76
2022/08/22 09:53:26;;;;;;;7.43;5.18;;;22.10;99.90;;;;;;5057456;28;25061;-75
2022/08/22 09:56:03;;;;;;;11.85;5.72;;;22.20;99.90;;;;;;5050020;28;25068;-76
2022/08/22 09:58:35;;;;;;;12.27;5.90;;;22.30;99.90;;;;;;5054012;28;25075;-75
2022/08/22 10:01:11;;;;;;;10.95;5.35;;;22.20;99.90;;;;;;5065340;28;25064;-75
2022/08/22 10:04:04;;;;;;;9.88;5.32;;;22.00;99.90;;;;;;5080521;28;25058;-76
2022/08/22 10:06:40;;;;;;;8.73;5.47;;;22.00;99.90;;;;;;5063799;28;25095;-75
2022/08/22 10:09:15;;;;;;;11.13;5.13;;;21.90;99.90;;;;;;5058233;28;25090;-75
2022/08/22 10:11:54;;;;;;;11.45;5.57;;;22.00;99.90;;;;;;5062986;28;25065;-74
2022/08/22 10:14:26;;;;;;;13.25;6.15;;;22.10;99.90;;;;;;5058327;28;25071;-74
2022/08/22 10:17:10;;;;;;;;;;;22.00;99.90;;;;;;5058210;28;25072;-75
2022/08/22 10:19:46;;;;;;;11.27;5.78;;;22.20;99.90;;;;;;5065810;28;25063;-76
2022/08/22 10:22:33;;;;;;;13.77;6.18;;;22.60;99.90;;;;;;5055511;28;25072;-76
2022/08/22 10:25:19;;;;;;;11.93;6.18;;;23.00;99.90;;;;;;5048532;28;25066;-75
2022/08/22 10:28:08;;;;;;;15.55;6.13;;;23.40;99.90;;;;;;5051805;28;25054;-76
2022/08/22 10:31:00;;;;;;;9.65;4.25;;;23.60;99.90;;;;;;5048590;28;25074;-74
2022/08/22 10:33:44;;;;;;;14.68;5.05;;;23.70;99.90;;;;;;5054123;28;25126;-74
2022/08/22 10:36:14;;;;;;;9.10;3.65;;;24.20;99.90;;;;;;5046997;28;25081;-76
2022/08/22 10:38:52;;;;;;;12.68;4.55;;;24.00;99.90;;;;;;5053497;28;25096;-75
2022/08/22 10:42:06;;;;;;;10.38;3.45;;;24.30;99.90;;;;;;5055689;28;25070;-74
2022/08/22 10:45:01;;;;;;;6.38;2.10;;;24.40;99.90;;;;;;5055790;28;25090;-73
2022/08/22 10:47:49;;;;;;;7.82;2.50;;;24.50;99.90;;;;;;5056265;28;25147;-76
2022/08/22 10:50:22;;;;;;;8.20;2.55;;;24.80;99.90;;;;;;5036594;28;25140;-74
2022/08/22 10:53:28;;;;;;;8.60;2.95;;;24.60;99.90;;;;;;5051570;28;25058;-71
2022/08/22 10:55:43;;;;;;;8.30;3.63;;;24.40;99.90;;;;;;5057515;28;25065;-74
2022/08/22 10:58:13;;;;;;;7.18;2.78;;;24.10;99.90;;;;;;5059142;28;25061;-73
2022/08/22 11:00:48;;;;;;;14.80;3.47;;;24.60;99.90;;;;;;5051186;28;25054;-74
2022/08/22 11:03:32;;;;;;;8.27;2.63;;;24.80;99.90;;;;;;5062125;28;25106;-74
2022/08/22 11:06:02;;;;;;;7.50;1.95;;;25.10;99.90;;;;;;5049234;28;25062;-73
2022/08/22 11:08:53;;;;;;;8.60;2.50;;;25.50;99.90;;;;;;5059478;28;25061;-74
2022/08/22 11:11:43;;;;;;;10.05;2.90;;;25.50;99.90;;;;;;5065876;28;25089;-76
2022/08/22 11:14:44;;;;;;;6.78;3.03;;;25.50;99.90;;;;;;5061293;28;25090;-73
2022/08/22 11:17:26;;;;;;;5.82;2.03;;;25.10;99.90;;;;;;5048652;28;25087;-74
2022/08/22 11:19:51;;;;;;;7.00;2.20;;;25.30;99.90;;;;;;5071052;28;25093;-75
2022/08/22 11:22:32;;;;;;;9.52;2.75;;;25.60;99.90;;;;;;5066883;28;25105;-72
2022/08/22 11:25:34;;;;;;;5.38;2.13;;;25.40;99.90;;;;;;5064850;28;25075;-75
2022/08/22 11:28:11;;;;;;;7.50;2.35;;;25.70;99.90;;;;;;5056427;28;25136;-74
2022/08/22 11:31:10;;;;;;;4.50;2.63;;;26.50;99.90;;;;;;5053411;28;25067;-74
2022/08/22 11:33:57;;;;;;;10.38;2.95;;;26.30;99.90;;;;;;5058285;28;25136;-74
2022/08/22 11:36:32;;;;;;;7.68;2.63;;;26.50;99.90;;;;;;5068106;28;25152;-74
2022/08/22 11:39:21;;;;;;;9.85;2.72;;;26.50;99.90;;;;;;5060461;28;25139;-74
2022/08/22 11:42:04;;;;;;;4.45;1.70;;;26.20;99.90;;;;;;5065502;28;25072;-74
2022/08/22 11:44:43;;;;;;;6.93;2.33;;;27.20;99.90;;;;;;5060952;28;25061;-74
2022/08/22 11:47:15;;;;;;;6.45;2.22;;;27.70;99.90;;;;;;5053258;28;25129;-73
2022/08/22 11:50:29;;;;;;;7.68;3.08;;;27.70;99.90;;;;;;5060565;28;25101;-73
2022/08/22 11:53:34;;;;;;;8.00;2.20;;;27.50;99.90;;;;;;5057929;28;25106;-72
2022/08/22 11:56:24;;;;;;;6.03;2.20;;;27.70;99.90;;;;;;5062180;28;25058;-74
2022/08/22 11:59:06;;;;;;;6.88;2.45;;;27.50;99.90;;;;;;5059787;28;25063;-74
2022/08/22 12:01:58;;;;;;;6.95;1.65;;;27.80;99.90;;;;;;5067341;28;25069;-73
2022/08/22 12:04:34;;;;;;;4.60;1.90;;;28.50;99.90;;;;;;5067464;28;25075;-74
2022/08/22 12:07:12;;;;;;;7.28;2.13;;;28.80;99.90;;;;;;5052388;28;25060;-75
2022/08/22 12:09:50;;;;;;;8.65;2.30;;;28.40;99.90;;;;;;5051497;28;25075;-74
2022/08/22 12:12:29;;;;;;;6.97;2.03;;;28.40;99.90;;;;;;5065003;28;25076;-74
2022/08/22 12:15:08;;;;;;;13.43;2.90;;;28.60;99.90;;;;;;5056476;28;25058;-73
2022/08/22 12:18:14;;;;;;;3.67;2.22;;;28.40;99.90;;;;;;5060795;28;25076;-72
2022/08/22 12:20:57;;;;;;;8.77;2.42;;;28.20;99.90;;;;;;5035320;28;25071;-75
2022/08/22 12:24:00;;;;;;;5.60;3.00;;;28.80;99.90;;;;;;5052823;28;25171;-73
2022/08/22 12:26:26;;;;;;;6.35;2.10;;;29.00;99.90;;;;;;5061226;28;25081;-72
2022/08/22 12:29:16;;;;;;;5.78;2.00;;;28.40;99.60;;;;;;5059737;28;25127;-75
2022/08/22 12:32:00;;;;;;;4.63;2.03;;;28.00;99.90;;;;;;5051127;28;25130;-73
2022/08/22 12:34:34;;;;;;;3.72;1.75;;;28.20;99.90;;;;;;5069145;28;25067;-73
2022/08/22 12:37:20;;;;;;;3.88;1.75;;;28.90;96.70;;;;;;5063348;28;25097;-74
2022/08/22 12:39:52;;;;;;;7.40;2.30;;;28.40;93.20;;;;;;5070470;28;25073;-73
2022/08/22 12:42:26;;;;;;;8.23;2.40;;;28.20;92.00;;;;;;5059638;28;25065;-74
2022/08/22 12:45:09;;;;;;;5.13;2.05;;;28.00;96.20;;;;;;5055700;28;25074;-76
2022/08/22 12:47:43;;;;;;;5.85;1.88;;;27.90;95.40;;;;;;5072821;28;25055;-75
2022/08/22 12:50:40;;;;;;;8.27;2.05;;;28.10;96.90;;;;;;5063492;28;25058;-73
2022/08/22 12:53:24;;;;;;;4.68;1.83;;;28.50;94.60;;;;;;5054702;28;25053;-73
2022/08/22 12:56:10;;;;;;;7.63;2.67;;;28.10;94.50;;;;;;5061662;28;25147;-74
2022/08/22 12:58:54;;;;;;;7.15;2.33;;;28.40;94.80;;;;;;5066761;28;25109;-72
2022/08/22 13:01:20;;;;;;;5.65;2.67;;;28.40;92.60;;;;;;5062521;28;25094;-74
2022/08/22 13:03:49;;;;;;;3.80;2.15;;;28.40;95.30;;;;;;5073526;28;25050;-75
2022/08/22 13:06:34;;;;;;;6.13;2.30;;;28.80;93.30;;;;;;5094238;28;25063;-78
2022/08/22 13:09:10;;;;;;;3.75;2.13;;;28.70;90.10;;;;;;5086542;28;25094;-77
2022/08/22 13:11:41;;;;;;;8.73;2.33;;;28.90;91.90;;;;;;5088700;28;25066;-79
2022/08/22 13:14:11;;;;;;;7.70;2.28;;;28.10;88.70;;;;;;5077857;28;25053;-77
2022/08/22 13:16:43;;;;;;;10.07;2.20;;;28.10;93.40;;;;;;5054747;28;25115;-73
2022/08/22 13:19:21;;;;;;;3.90;1.70;;;28.60;93.20;;;;;;5052407;28;25087;-73
2022/08/22 13:22:08;;;;;;;8.93;2.53;;;27.30;90.10;;;;;;5060735;28;25073;-74
2022/08/22 13:24:44;;;;;;;8.30;2.50;;;27.10;95.80;;;;;;5060400;28;25077;-75
2022/08/22 13:27:24;;;;;;;6.70;1.92;;;27.30;95.60;;;;;;5052669;28;25081;-76
2022/08/22 13:30:05;;;;;;;6.65;2.85;;;27.00;96.10;;;;;;5054317;28;25057;-76
2022/08/22 13:32:38;;;;;;;5.75;1.77;;;26.80;99.50;;;;;;5052073;28;25053;-73
2022/08/22 13:35:08;;;;;;;6.75;3.67;;;27.00;99.90;;;;;;5048844;28;25078;-73
2022/08/22 13:37:43;;;;;;;8.68;2.50;;;27.30;99.40;;;;;;5055728;28;25113;-72
2022/08/22 13:40:19;;;;;;;6.88;2.28;;;27.40;98.70;;;;;;5049737;28;25065;-72
2022/08/22 13:42:49;;;;;;;4.47;2.30;;;27.00;95.90;;;;;;5046828;28;25082;-74
2022/08/22 13:45:24;;;;;;;6.05;2.60;;;26.40;99.00;;;;;;5045083;28;25109;-74
2022/08/22 13:47:56;;;;;;;7.95;2.38;;;26.20;99.90;;;;;;5052251;28;25120;-74
2022/08/22 13:50:24;;;;;;;5.03;1.75;;;26.40;99.90;;;;;;5047940;28;25150;-73
2022/08/22 13:52:54;;;;;;;6.97;2.17;;;26.70;99.90;;;;;;5054151;28;25076;-74
2022/08/22 13:55:41;;;;;;;5.93;2.17;;;26.90;99.90;;;;;;5059165;28;25065;-74
2022/08/22 13:58:37;;;;;;;7.35;1.90;;;26.90;98.30;;;;;;5048562;28;25059;-72
2022/08/22 14:01:41;;;;;;;7.38;1.98;;;26.30;97.70;;;;;;5074668;28;25104;-71
2022/08/22 14:04:13;;;;;;;4.00;2.13;;;26.00;98.90;;;;;;5058977;28;25071;-75